Flight Track Log - Related Links

Times and Time Zones

All times are in EDT time to prevent confusion due to time zone crossing. See the EGF3418 flight status page for this flight to view local times or setup timezone preferences in your user account.

Time Position Orientation Groundspeed Altitude Reporting Facility
EDT Latitude Longitude Course Direction KTS MPH feet Rate Location/Type
Mon 04:15:03 PM 32.8833 -97.0500 308° West 146 168 1,600  Level Dallas / Fort Worth TRACON
Mon 04:16:03 PM 32.8333 -97.0667 196° South 191 220 3,300 1,785 Climbing Dallas / Fort Worth TRACON
Mon 04:17:00 PM 32.7643 -97.2192 281° West  Level FlightAware Approximate
Mon 04:17:04 PM 32.7833 -97.0833 196° South 241 277 5,200  Level Dallas / Fort Worth TRACON
Mon 04:18:00 PM 32.8109 -97.3041 307° West  Level FlightAware Approximate
Mon 04:18:05 PM 32.7667 -97.1667 257° West 260 299 8,000  Level Dallas / Fort Worth TRACON
Mon 04:19:00 PM 32.8629 -97.3859 308° West  Level FlightAware Approximate
Mon 04:19:07 PM 32.8042 -97.2528 297° West 284 327 9,900  Level Fort Worth Center
Mon 04:20:00 PM 32.9165 -97.4664 308° West  Level FlightAware Approximate
Mon 04:20:07 PM 32.8500 -97.3294 305° West 289 333 11,000  Level Fort Worth Center
Mon 04:21:07 PM 32.9044 -97.4183 306° West 314 361 12,400 1,550 Climbing Fort Worth Center
Mon 04:22:07 PM 32.9522 -97.5000 305° West 319 367 14,100 1,800 Climbing Fort Worth Center
Mon 04:23:07 PM 33.0106 -97.5942 306° West 324 373 16,000 1,750 Climbing Fort Worth Center
Mon 04:24:07 PM 33.0606 -97.6811 304° West 329 379 17,600 1,450 Climbing Fort Worth Center
Mon 04:25:07 PM 33.1000 -97.7656 299° West 324 373 18,900 1,450 Climbing Fort Worth Center
Mon 04:26:07 PM 33.1353 -97.8750 291° West 318 366 20,500 1,500 Climbing Fort Worth Center
Mon 04:27:07 PM 33.1619 -97.9619 290° West 318 366 21,900 1,400 Climbing Fort Worth Center
Mon 04:28:07 PM 33.1989 -98.0739 292° West 323 372 23,300 1,400 Climbing Fort Worth Center
Mon 04:29:07 PM 33.2317 -98.1783 291° West 331 381 24,700 1,450 Climbing Fort Worth Center
Mon 04:30:07 PM 33.2625 -98.2781 290° West 331 381 26,200 1,500 Climbing Fort Worth Center
Mon 04:31:07 PM 33.2931 -98.3753 291° West 325 374 27,700 1,450 Climbing Fort Worth Center
Mon 04:32:07 PM 33.3217 -98.4650 291° West 304 350 29,100 1,450 Climbing Fort Worth Center
Mon 04:33:07 PM 33.3500 -98.5525 291° West 299 344 30,600 1,250 Climbing Fort Worth Center
Mon 04:34:07 PM 33.3783 -98.6447 290° West 294 338 31,600 700 Climbing Fort Worth Center
Mon 04:35:07 PM 33.4067 -98.7397 290° West 294 338 32,000 200 Climbing Fort Worth Center
Mon 04:36:07 PM 33.4367 -98.8447 289° West 312 359 32,000  Level Fort Worth Center
Mon 04:37:07 PM 33.4731 -98.9575 291° West 339 390 32,000  Level Fort Worth Center
Mon 04:38:07 PM 33.5069 -99.0725 289° West 359 413 32,000  Level Fort Worth Center
Mon 04:39:07 PM 33.5408 -99.1853 290° West 364 419 32,000  Level Fort Worth Center
Mon 04:40:07 PM 33.5747 -99.2983 290° West 364 419 32,000  Level Fort Worth Center
Mon 04:41:07 PM 33.6106 -99.4161 290° West 369 425 32,000  Level Fort Worth Center
Mon 04:42:07 PM 33.6736 -99.5075 310° West 357 411 32,000  Level Fort Worth Center
Mon 04:43:07 PM 33.7514 -99.5944 317° Northwest 368 423 32,000  Level Fort Worth Center
Mon 04:44:07 PM 33.8253 -99.6761 317° Northwest 368 423 32,000  Level Fort Worth Center
Mon 04:45:07 PM 33.9008 -99.7633 316° Northwest 373 429 32,000  Level Fort Worth Center
Mon 04:46:07 PM 33.9786 -99.8481 318° Northwest 373 429 32,000  Level Fort Worth Center
Mon 04:47:07 PM 34.0561 -99.9378 316° Northwest 373 429 32,000  Level Fort Worth Center
Mon 04:48:07 PM 34.1314 -100.0206 318° Northwest 373 429 32,000  Level Fort Worth Center
Mon 04:49:07 PM 34.2069 -100.1056 317° Northwest 373 429 32,000  Level Fort Worth Center
Mon 04:51:09 PM 34.3519 -100.2669 317° Northwest 377 434 32,000  Level Albuquerque Center
Mon 04:52:10 PM 34.4283 -100.3817 309° West 370 426 32,000 -293 Level Albuquerque Center
Mon 04:53:12 PM 34.4900 -100.4792 308° West 366 421 31,400 -1,113 Descending Albuquerque Center
Mon 04:54:14 PM 34.5500 -100.5750 307° West 359 413 29,700 -1,935 Descending Albuquerque Center
Mon 04:55:16 PM 34.6111 -100.6753 307° West 366 421 27,400 -2,758 Descending Albuquerque Center
Mon 04:56:18 PM 34.6761 -100.7794 307° West 383 441 24,000 -3,317 Descending Albuquerque Center
Mon 04:57:19 PM 34.7375 -100.8794 307° West 376 433 20,600 -3,317 Descending Albuquerque Center
Mon 04:58:21 PM 34.7978 -100.9781 307° West 367 422 17,200 -3,290 Descending Albuquerque Center
Mon 04:59:23 PM 34.8831 -101.0850 314° West 367 422 13,800 -2,468 Descending Albuquerque Center
Mon 05:00:25 PM 34.9522 -101.1753 313° West 367 422 12,100 -1,415 Descending Albuquerque Center
Mon 05:01:26 PM 35.0189 -101.2622 313° West 356 410 10,900 -1,073 Descending Albuquerque Center
Mon 05:02:28 PM 35.0775 -101.3397 313° West 322 371 9,900 -1,113 Descending Albuquerque Center
Mon 05:03:30 PM 35.1294 -101.4083 313° West 296 341 8,600 -1,355 Descending Albuquerque Center
Mon 05:04:32 PM 35.1775 -101.4714 313° West 275 316 7,100 -1,268 Descending Albuquerque Center
Mon 05:05:33 PM 35.2331 -101.5458 312° West 259 298 6,000 -1,082 Descending Albuquerque Center

Login

Don't have an account? Register now (free) for customized features, flight alerts, and more!